SBEG Airport Information

Runway Information
Runway 10 Length 8858 ft width 148 ft
Elevation 0 ft Threshold 0 ft Heading 0
Runway 28 Length 8858 ft Width 148 ft
Elevation 0 ft Threshold 0 ft Heading 0
Airport Frequencies
Type APP Name MANAUS APP Frequency 119.1 MHZ
Type ATIS Name ATIS Frequency 127.65 MHZ
Type GND Name GND Frequency 121.9 MHZ
Type OPS Name OPS Frequency 122.5 MHZ
Type TWR Name TWR Frequency 118.3 MHZ
Airport Navaids
Type VOR-DME Name Manaus Frequency 115200 KHZ
Type NDB Name Manaus Frequency 340 KHZ
Airport Weather Information & NOTAM
ADDS - METARS form results

(1920 UTC 19 July 2018)
 
METAR text: SBEG 191900Z 11008KT 9999 VCSH SCT020 FEW025TCU 30/21 Q1010
Conditions at: SBEG (EDUARDO GOMES IN, BR) observed 1900 UTC 19 July 2018
Temperature: 30.0°C (86°F)
Dewpoint: 21.0°C (70°F) [RH = 59%]
Pressure (altimeter): 29.82 inches Hg (1010.0 mb)
Winds: from the ESE (110 degrees) at 9 MPH (8 knots; 4.2 m/s)
Visibility: 6 or more miles (10+ km)
Ceiling: at least 12,000 feet AGL
Clouds: scattered clouds at 2000 feet AGL
few clouds at 2500 feet AGL
Weather: VCSH  (showers in vicinity)